sensor_id;sensor_type;location;lat;lon;timestamp;P1;durP1;ratioP1;P2;durP2;ratioP2
38591;SDS011;24356;48.460;11.450;2022-11-15T00:00:52;10.32;;;6.88;;
38591;SDS011;24356;48.460;11.450;2022-11-15T00:03:19;14.07;;;7.30;;
38591;SDS011;24356;48.460;11.450;2022-11-15T00:05:47;10.32;;;7.10;;
38591;SDS011;24356;48.460;11.450;2022-11-15T00:08:13;11.32;;;6.60;;
38591;SDS011;24356;48.460;11.450;2022-11-15T00:10:38;12.43;;;7.15;;
38591;SDS011;24356;48.460;11.450;2022-11-15T00:13:08;11.75;;;6.85;;
38591;SDS011;24356;48.460;11.450;2022-11-15T00:15:36;10.30;;;6.60;;
38591;SDS011;24356;48.460;11.450;2022-11-15T00:18:03;11.10;;;6.55;;
38591;SDS011;24356;48.460;11.450;2022-11-15T00:20:30;11.52;;;6.72;;
38591;SDS011;24356;48.460;11.450;2022-11-15T00:22:56;14.15;;;7.18;;
38591;SDS011;24356;48.460;11.450;2022-11-15T00:25:21;9.82;;;6.35;;
38591;SDS011;24356;48.460;11.450;2022-11-15T00:27:47;11.00;;;6.53;;
38591;SDS011;24356;48.460;11.450;2022-11-15T00:30:12;11.65;;;7.00;;
38591;SDS011;24356;48.460;11.450;2022-11-15T00:32:38;11.02;;;6.57;;
38591;SDS011;24356;48.460;11.450;2022-11-15T00:35:04;14.93;;;7.05;;
38591;SDS011;24356;48.460;11.450;2022-11-15T00:37:30;10.13;;;6.65;;
38591;SDS011;24356;48.460;11.450;2022-11-15T00:39:55;10.48;;;6.88;;
38591;SDS011;24356;48.460;11.450;2022-11-15T00:42:21;10.32;;;6.40;;
38591;SDS011;24356;48.460;11.450;2022-11-15T00:44:46;12.93;;;7.28;;
38591;SDS011;24356;48.460;11.450;2022-11-15T00:47:12;9.98;;;6.40;;
38591;SDS011;24356;48.460;11.450;2022-11-15T00:49:38;10.95;;;6.47;;
38591;SDS011;24356;48.460;11.450;2022-11-15T00:52:03;11.05;;;6.63;;
38591;SDS011;24356;48.460;11.450;2022-11-15T00:54:29;10.88;;;6.50;;
38591;SDS011;24356;48.460;11.450;2022-11-15T00:56:56;13.90;;;7.50;;
38591;SDS011;24356;48.460;11.450;2022-11-15T00:59:22;11.75;;;5.95;;
38591;SDS011;24356;48.460;11.450;2022-11-15T01:01:47;8.60;;;6.15;;
38591;SDS011;24356;48.460;11.450;2022-11-15T01:04:13;9.57;;;6.20;;
38591;SDS011;24356;48.460;11.450;2022-11-15T01:06:39;10.05;;;6.13;;
38591;SDS011;24356;48.460;11.450;2022-11-15T01:09:04;10.68;;;6.22;;
38591;SDS011;24356;48.460;11.450;2022-11-15T01:11:30;10.60;;;6.47;;
38591;SDS011;24356;48.460;11.450;2022-11-15T01:13:56;10.10;;;6.53;;
38591;SDS011;24356;48.460;11.450;2022-11-15T01:16:21;10.55;;;6.55;;
38591;SDS011;24356;48.460;11.450;2022-11-15T01:18:47;10.98;;;6.50;;
38591;SDS011;24356;48.460;11.450;2022-11-15T01:21:13;10.45;;;6.35;;
38591;SDS011;24356;48.460;11.450;2022-11-15T01:23:42;11.27;;;6.70;;
38591;SDS011;24356;48.460;11.450;2022-11-15T01:26:10;11.55;;;6.40;;
38591;SDS011;24356;48.460;11.450;2022-11-15T01:28:38;11.77;;;6.75;;
38591;SDS011;24356;48.460;11.450;2022-11-15T01:31:07;11.43;;;6.60;;
38591;SDS011;24356;48.460;11.450;2022-11-15T01:33:37;9.68;;;6.03;;
38591;SDS011;24356;48.460;11.450;2022-11-15T01:36:03;10.88;;;6.70;;
38591;SDS011;24356;48.460;11.450;2022-11-15T01:38:33;10.27;;;6.22;;
38591;SDS011;24356;48.460;11.450;2022-11-15T01:40:59;9.10;;;6.00;;
38591;SDS011;24356;48.460;11.450;2022-11-15T01:43:26;9.15;;;5.70;;
38591;SDS011;24356;48.460;11.450;2022-11-15T01:45:56;9.18;;;5.88;;
38591;SDS011;24356;48.460;11.450;2022-11-15T01:48:28;9.50;;;6.32;;
38591;SDS011;24356;48.460;11.450;2022-11-15T01:50:59;8.93;;;5.90;;
38591;SDS011;24356;48.460;11.450;2022-11-15T01:53:27;9.95;;;6.18;;
38591;SDS011;24356;48.460;11.450;2022-11-15T01:55:55;9.38;;;5.88;;
38591;SDS011;24356;48.460;11.450;2022-11-15T01:58:21;9.30;;;5.55;;
38591;SDS011;24356;48.460;11.450;2022-11-15T02:00:47;8.85;;;5.68;;
38591;SDS011;24356;48.460;11.450;2022-11-15T02:03:14;10.35;;;5.97;;
38591;SDS011;24356;48.460;11.450;2022-11-15T02:05:40;8.82;;;5.53;;
38591;SDS011;24356;48.460;11.450;2022-11-15T02:08:06;10.48;;;5.65;;
38591;SDS011;24356;48.460;11.450;2022-11-15T02:10:44;9.10;;;5.43;;
38591;SDS011;24356;48.460;11.450;2022-11-15T02:13:11;8.00;;;5.43;;
38591;SDS011;24356;48.460;11.450;2022-11-15T02:15:40;8.13;;;5.57;;
38591;SDS011;24356;48.460;11.450;2022-11-15T02:18:24;9.27;;;5.35;;
38591;SDS011;24356;48.460;11.450;2022-11-15T02:29:30;10.48;;;5.93;;
38591;SDS011;24356;48.460;11.450;2022-11-15T02:32:20;9.05;;;6.00;;
38591;SDS011;24356;48.460;11.450;2022-11-15T02:37:37;9.93;;;5.65;;
38591;SDS011;24356;48.460;11.450;2022-11-15T02:42:53;11.65;;;6.55;;
38591;SDS011;24356;48.460;11.450;2022-11-15T02:45:41;8.82;;;5.63;;
38591;SDS011;24356;48.460;11.450;2022-11-15T02:48:13;8.50;;;5.70;;
38591;SDS011;24356;48.460;11.450;2022-11-15T02:50:41;10.45;;;6.03;;
38591;SDS011;24356;48.460;11.450;2022-11-15T02:53:08;9.20;;;5.68;;
38591;SDS011;24356;48.460;11.450;2022-11-15T02:55:38;9.50;;;6.03;;
38591;SDS011;24356;48.460;11.450;2022-11-15T03:01:07;11.20;;;5.47;;
38591;SDS011;24356;48.460;11.450;2022-11-15T03:06:35;10.75;;;6.18;;
38591;SDS011;24356;48.460;11.450;2022-11-15T03:09:19;9.18;;;5.63;;
38591;SDS011;24356;48.460;11.450;2022-11-15T03:11:54;9.85;;;5.47;;
38591;SDS011;24356;48.460;11.450;2022-11-15T03:17:34;9.85;;;5.63;;
38591;SDS011;24356;48.460;11.450;2022-11-15T03:20:04;10.23;;;6.32;;
38591;SDS011;24356;48.460;11.450;2022-11-15T03:22:34;7.75;;;5.15;;
38591;SDS011;24356;48.460;11.450;2022-11-15T03:25:04;8.90;;;5.32;;
38591;SDS011;24356;48.460;11.450;2022-11-15T03:27:34;7.95;;;5.35;;
38591;SDS011;24356;48.460;11.450;2022-11-15T03:30:06;8.98;;;5.45;;
38591;SDS011;24356;48.460;11.450;2022-11-15T03:33:06;11.00;;;5.70;;
38591;SDS011;24356;48.460;11.450;2022-11-15T03:35:27;11.32;;;5.95;;
38591;SDS011;24356;48.460;11.450;2022-11-15T03:37:59;8.75;;;5.35;;
38591;SDS011;24356;48.460;11.450;2022-11-15T03:40:30;8.65;;;5.28;;
38591;SDS011;24356;48.460;11.450;2022-11-15T03:46:02;10.63;;;5.93;;
38591;SDS011;24356;48.460;11.450;2022-11-15T03:48:37;9.60;;;6.18;;
38591;SDS011;24356;48.460;11.450;2022-11-15T03:51:08;8.52;;;5.60;;
38591;SDS011;24356;48.460;11.450;2022-11-15T03:53:36;9.07;;;5.78;;
38591;SDS011;24356;48.460;11.450;2022-11-15T03:56:02;10.10;;;5.63;;
38591;SDS011;24356;48.460;11.450;2022-11-15T03:58:28;9.18;;;5.85;;
38591;SDS011;24356;48.460;11.450;2022-11-15T04:00:53;10.77;;;5.82;;
38591;SDS011;24356;48.460;11.450;2022-11-15T04:03:19;8.43;;;5.78;;
38591;SDS011;24356;48.460;11.450;2022-11-15T04:05:45;8.73;;;5.97;;
38591;SDS011;24356;48.460;11.450;2022-11-15T04:08:10;9.90;;;6.18;;
38591;SDS011;24356;48.460;11.450;2022-11-15T04:10:36;9.25;;;5.72;;
38591;SDS011;24356;48.460;11.450;2022-11-15T04:13:02;11.07;;;6.07;;
38591;SDS011;24356;48.460;11.450;2022-11-15T04:15:28;12.32;;;5.80;;
38591;SDS011;24356;48.460;11.450;2022-11-15T04:17:55;7.28;;;5.30;;
38591;SDS011;24356;48.460;11.450;2022-11-15T04:20:22;10.07;;;5.88;;
38591;SDS011;24356;48.460;11.450;2022-11-15T04:23:09;8.48;;;5.43;;
38591;SDS011;24356;48.460;11.450;2022-11-15T04:26:17;8.63;;;5.38;;
38591;SDS011;24356;48.460;11.450;2022-11-15T04:28:45;9.03;;;5.70;;
38591;SDS011;24356;48.460;11.450;2022-11-15T04:34:00;9.43;;;4.90;;
38591;SDS011;24356;48.460;11.450;2022-11-15T04:36:25;6.88;;;4.88;;
38591;SDS011;24356;48.460;11.450;2022-11-15T04:39:09;8.93;;;5.03;;
38591;SDS011;24356;48.460;11.450;2022-11-15T04:41:35;8.90;;;5.13;;
38591;SDS011;24356;48.460;11.450;2022-11-15T04:44:01;8.35;;;5.45;;
38591;SDS011;24356;48.460;11.450;2022-11-15T04:46:27;10.73;;;6.25;;
38591;SDS011;24356;48.460;11.450;2022-11-15T04:48:53;9.25;;;5.97;;
38591;SDS011;24356;48.460;11.450;2022-11-15T04:51:19;10.73;;;6.00;;
38591;SDS011;24356;48.460;11.450;2022-11-15T04:53:45;10.43;;;6.32;;
38591;SDS011;24356;48.460;11.450;2022-11-15T04:56:10;11.18;;;5.78;;
38591;SDS011;24356;48.460;11.450;2022-11-15T04:58:37;8.15;;;5.25;;
38591;SDS011;24356;48.460;11.450;2022-11-15T05:01:12;9.25;;;5.75;;
38591;SDS011;24356;48.460;11.450;2022-11-15T05:03:40;8.57;;;5.43;;
38591;SDS011;24356;48.460;11.450;2022-11-15T05:06:24;9.77;;;5.50;;
38591;SDS011;24356;48.460;11.450;2022-11-15T05:08:50;9.93;;;5.55;;
38591;SDS011;24356;48.460;11.450;2022-11-15T05:11:16;10.57;;;5.72;;
38591;SDS011;24356;48.460;11.450;2022-11-15T05:13:42;8.43;;;5.35;;
38591;SDS011;24356;48.460;11.450;2022-11-15T05:16:08;7.13;;;5.38;;
38591;SDS011;24356;48.460;11.450;2022-11-15T05:18:33;9.48;;;5.30;;
38591;SDS011;24356;48.460;11.450;2022-11-15T05:21:03;8.90;;;5.80;;
38591;SDS011;24356;48.460;11.450;2022-11-15T05:23:30;7.80;;;5.13;;
38591;SDS011;24356;48.460;11.450;2022-11-15T05:25:58;8.45;;;5.22;;
38591;SDS011;24356;48.460;11.450;2022-11-15T05:28:24;9.40;;;5.25;;
38591;SDS011;24356;48.460;11.450;2022-11-15T05:30:50;9.32;;;5.30;;
38591;SDS011;24356;48.460;11.450;2022-11-15T05:33:16;10.52;;;5.35;;
38591;SDS011;24356;48.460;11.450;2022-11-15T05:35:43;8.82;;;4.97;;
38591;SDS011;24356;48.460;11.450;2022-11-15T05:38:15;12.93;;;5.43;;
38591;SDS011;24356;48.460;11.450;2022-11-15T05:40:41;10.23;;;5.93;;
38591;SDS011;24356;48.460;11.450;2022-11-15T05:43:07;8.55;;;5.55;;
38591;SDS011;24356;48.460;11.450;2022-11-15T05:45:33;9.05;;;5.40;;
38591;SDS011;24356;48.460;11.450;2022-11-15T05:47:59;9.18;;;5.32;;
38591;SDS011;24356;48.460;11.450;2022-11-15T05:50:28;9.95;;;6.07;;
38591;SDS011;24356;48.460;11.450;2022-11-15T05:52:54;10.05;;;6.50;;
38591;SDS011;24356;48.460;11.450;2022-11-15T05:55:20;10.55;;;6.60;;
38591;SDS011;24356;48.460;11.450;2022-11-15T05:57:46;8.98;;;6.18;;
38591;SDS011;24356;48.460;11.450;2022-11-15T06:00:12;10.07;;;6.75;;
38591;SDS011;24356;48.460;11.450;2022-11-15T06:02:38;11.13;;;6.38;;
38591;SDS011;24356;48.460;11.450;2022-11-15T06:05:03;11.52;;;6.32;;
38591;SDS011;24356;48.460;11.450;2022-11-15T06:07:29;9.98;;;6.43;;
38591;SDS011;24356;48.460;11.450;2022-11-15T06:09:55;11.52;;;5.88;;
38591;SDS011;24356;48.460;11.450;2022-11-15T06:12:21;9.55;;;6.07;;
38591;SDS011;24356;48.460;11.450;2022-11-15T06:14:46;13.35;;;6.20;;
38591;SDS011;24356;48.460;11.450;2022-11-15T06:17:12;12.32;;;6.35;;
38591;SDS011;24356;48.460;11.450;2022-11-15T06:19:38;10.27;;;6.45;;
38591;SDS011;24356;48.460;11.450;2022-11-15T06:22:03;10.90;;;6.93;;
38591;SDS011;24356;48.460;11.450;2022-11-15T06:24:29;12.73;;;6.45;;
38591;SDS011;24356;48.460;11.450;2022-11-15T06:26:55;9.68;;;5.90;;
38591;SDS011;24356;48.460;11.450;2022-11-15T06:29:20;9.90;;;5.90;;
38591;SDS011;24356;48.460;11.450;2022-11-15T06:31:46;9.45;;;5.97;;
38591;SDS011;24356;48.460;11.450;2022-11-15T06:34:11;11.57;;;5.45;;
38591;SDS011;24356;48.460;11.450;2022-11-15T06:36:37;12.43;;;5.75;;
38591;SDS011;24356;48.460;11.450;2022-11-15T06:39:03;11.68;;;5.90;;
38591;SDS011;24356;48.460;11.450;2022-11-15T06:41:29;11.30;;;6.10;;
38591;SDS011;24356;48.460;11.450;2022-11-15T06:43:56;9.50;;;5.78;;
38591;SDS011;24356;48.460;11.450;2022-11-15T06:46:22;11.70;;;6.60;;
38591;SDS011;24356;48.460;11.450;2022-11-15T06:48:50;10.15;;;5.80;;
38591;SDS011;24356;48.460;11.450;2022-11-15T06:51:16;11.38;;;5.75;;
38591;SDS011;24356;48.460;11.450;2022-11-15T06:53:42;9.93;;;6.05;;
38591;SDS011;24356;48.460;11.450;2022-11-15T06:56:08;9.02;;;5.82;;
38591;SDS011;24356;48.460;11.450;2022-11-15T06:58:34;10.13;;;5.97;;
38591;SDS011;24356;48.460;11.450;2022-11-15T07:01:01;8.57;;;5.57;;
38591;SDS011;24356;48.460;11.450;2022-11-15T07:03:28;11.07;;;6.07;;
38591;SDS011;24356;48.460;11.450;2022-11-15T07:05:54;12.00;;;5.72;;
38591;SDS011;24356;48.460;11.450;2022-11-15T07:08:22;12.43;;;6.47;;
38591;SDS011;24356;48.460;11.450;2022-11-15T07:10:49;10.23;;;5.60;;
38591;SDS011;24356;48.460;11.450;2022-11-15T07:13:15;13.55;;;6.28;;
38591;SDS011;24356;48.460;11.450;2022-11-15T07:15:41;12.10;;;6.43;;
38591;SDS011;24356;48.460;11.450;2022-11-15T07:18:06;10.88;;;5.75;;
38591;SDS011;24356;48.460;11.450;2022-11-15T07:20:32;12.85;;;7.10;;
38591;SDS011;24356;48.460;11.450;2022-11-15T07:23:01;14.43;;;6.63;;
38591;SDS011;24356;48.460;11.450;2022-11-15T07:25:28;9.65;;;6.50;;
38591;SDS011;24356;48.460;11.450;2022-11-15T07:27:58;10.95;;;7.10;;
38591;SDS011;24356;48.460;11.450;2022-11-15T07:30:24;11.13;;;6.15;;
38591;SDS011;24356;48.460;11.450;2022-11-15T07:32:57;12.25;;;6.70;;
38591;SDS011;24356;48.460;11.450;2022-11-15T07:35:24;12.13;;;6.97;;
38591;SDS011;24356;48.460;11.450;2022-11-15T07:37:58;12.52;;;7.50;;
38591;SDS011;24356;48.460;11.450;2022-11-15T07:40:25;13.18;;;8.20;;
38591;SDS011;24356;48.460;11.450;2022-11-15T07:42:52;15.85;;;8.57;;
38591;SDS011;24356;48.460;11.450;2022-11-15T07:45:23;12.25;;;7.72;;
38591;SDS011;24356;48.460;11.450;2022-11-15T07:47:51;22.20;;;10.32;;
38591;SDS011;24356;48.460;11.450;2022-11-15T07:50:17;19.35;;;10.25;;
38591;SDS011;24356;48.460;11.450;2022-11-15T07:55:17;17.85;;;9.00;;
38591;SDS011;24356;48.460;11.450;2022-11-15T07:57:43;17.38;;;10.07;;
38591;SDS011;24356;48.460;11.450;2022-11-15T08:00:08;16.65;;;9.60;;
38591;SDS011;24356;48.460;11.450;2022-11-15T08:02:34;15.80;;;8.40;;
38591;SDS011;24356;48.460;11.450;2022-11-15T08:05:00;13.90;;;7.93;;
38591;SDS011;24356;48.460;11.450;2022-11-15T08:07:28;12.18;;;7.97;;
38591;SDS011;24356;48.460;11.450;2022-11-15T08:09:55;12.88;;;6.95;;
38591;SDS011;24356;48.460;11.450;2022-11-15T08:12:21;12.98;;;7.10;;
38591;SDS011;24356;48.460;11.450;2022-11-15T08:14:47;23.25;;;7.85;;
38591;SDS011;24356;48.460;11.450;2022-11-15T08:17:13;17.73;;;7.95;;
38591;SDS011;24356;48.460;11.450;2022-11-15T08:19:39;14.13;;;6.68;;
38591;SDS011;24356;48.460;11.450;2022-11-15T08:22:04;7.63;;;5.15;;
38591;SDS011;24356;48.460;11.450;2022-11-15T08:24:31;9.52;;;5.18;;
38591;SDS011;24356;48.460;11.450;2022-11-15T08:26:57;8.07;;;5.32;;
38591;SDS011;24356;48.460;11.450;2022-11-15T08:29:23;7.65;;;4.75;;
38591;SDS011;24356;48.460;11.450;2022-11-15T08:31:48;7.60;;;4.90;;
38591;SDS011;24356;48.460;11.450;2022-11-15T08:34:14;8.85;;;4.75;;
38591;SDS011;24356;48.460;11.450;2022-11-15T08:36:41;6.60;;;4.32;;
38591;SDS011;24356;48.460;11.450;2022-11-15T08:39:09;7.10;;;4.40;;
38591;SDS011;24356;48.460;11.450;2022-11-15T08:41:37;7.15;;;4.30;;
38591;SDS011;24356;48.460;11.450;2022-11-15T08:44:03;6.90;;;4.60;;
38591;SDS011;24356;48.460;11.450;2022-11-15T08:46:29;7.95;;;4.95;;
38591;SDS011;24356;48.460;11.450;2022-11-15T08:48:56;5.85;;;4.47;;
38591;SDS011;24356;48.460;11.450;2022-11-15T08:51:23;9.75;;;4.40;;
38591;SDS011;24356;48.460;11.450;2022-11-15T08:53:49;7.47;;;4.45;;
38591;SDS011;24356;48.460;11.450;2022-11-15T08:56:15;5.88;;;3.80;;
38591;SDS011;24356;48.460;11.450;2022-11-15T08:58:40;6.13;;;4.07;;
38591;SDS011;24356;48.460;11.450;2022-11-15T09:01:13;6.00;;;4.15;;
38591;SDS011;24356;48.460;11.450;2022-11-15T09:03:41;6.50;;;3.97;;
38591;SDS011;24356;48.460;11.450;2022-11-15T09:06:06;5.03;;;3.50;;
38591;SDS011;24356;48.460;11.450;2022-11-15T09:08:32;5.95;;;3.95;;
38591;SDS011;24356;48.460;11.450;2022-11-15T09:10:57;6.30;;;3.53;;
38591;SDS011;24356;48.460;11.450;2022-11-15T09:13:23;6.82;;;4.32;;
38591;SDS011;24356;48.460;11.450;2022-11-15T09:15:49;8.05;;;4.32;;
38591;SDS011;24356;48.460;11.450;2022-11-15T09:18:15;6.90;;;4.55;;
38591;SDS011;24356;48.460;11.450;2022-11-15T09:20:41;6.95;;;4.30;;
38591;SDS011;24356;48.460;11.450;2022-11-15T09:23:06;7.75;;;4.20;;
38591;SDS011;24356;48.460;11.450;2022-11-15T09:25:32;7.43;;;4.20;;
38591;SDS011;24356;48.460;11.450;2022-11-15T09:27:58;7.22;;;4.53;;
38591;SDS011;24356;48.460;11.450;2022-11-15T09:30:24;7.25;;;4.57;;
38591;SDS011;24356;48.460;11.450;2022-11-15T09:32:50;5.82;;;3.97;;
38591;SDS011;24356;48.460;11.450;2022-11-15T09:35:15;7.80;;;4.18;;
38591;SDS011;24356;48.460;11.450;2022-11-15T09:37:41;7.15;;;4.40;;
38591;SDS011;24356;48.460;11.450;2022-11-15T09:40:14;6.75;;;4.20;;
38591;SDS011;24356;48.460;11.450;2022-11-15T09:45:27;5.70;;;4.05;;
38591;SDS011;24356;48.460;11.450;2022-11-15T09:50:58;8.13;;;4.80;;
38591;SDS011;24356;48.460;11.450;2022-11-15T09:53:25;9.63;;;4.53;;
38591;SDS011;24356;48.460;11.450;2022-11-15T09:56:00;7.07;;;4.85;;
38591;SDS011;24356;48.460;11.450;2022-11-15T10:04:20;8.60;;;4.90;;
38591;SDS011;24356;48.460;11.450;2022-11-15T10:07:01;8.05;;;4.80;;
38591;SDS011;24356;48.460;11.450;2022-11-15T10:12:42;8.48;;;5.30;;
38591;SDS011;24356;48.460;11.450;2022-11-15T10:15:15;6.35;;;4.53;;
38591;SDS011;24356;48.460;11.450;2022-11-15T10:23:18;7.75;;;4.80;;
38591;SDS011;24356;48.460;11.450;2022-11-15T10:25:45;8.85;;;5.30;;
38591;SDS011;24356;48.460;11.450;2022-11-15T10:30:49;7.05;;;4.82;;
38591;SDS011;24356;48.460;11.450;2022-11-15T10:33:34;7.50;;;5.10;;
38591;SDS011;24356;48.460;11.450;2022-11-15T10:36:22;10.30;;;4.95;;
38591;SDS011;24356;48.460;11.450;2022-11-15T10:41:18;8.45;;;4.82;;
38591;SDS011;24356;48.460;11.450;2022-11-15T10:44:32;7.90;;;5.00;;
38591;SDS011;24356;48.460;11.450;2022-11-15T10:46:37;8.50;;;4.50;;
38591;SDS011;24356;48.460;11.450;2022-11-15T10:51:57;7.13;;;4.78;;
38591;SDS011;24356;48.460;11.450;2022-11-15T10:54:30;8.20;;;5.03;;
38591;SDS011;24356;48.460;11.450;2022-11-15T10:57:04;8.65;;;5.00;;
38591;SDS011;24356;48.460;11.450;2022-11-15T10:59:33;8.35;;;4.90;;
38591;SDS011;24356;48.460;11.450;2022-11-15T11:02:02;8.45;;;5.43;;
38591;SDS011;24356;48.460;11.450;2022-11-15T11:04:50;10.07;;;5.30;;
38591;SDS011;24356;48.460;11.450;2022-11-15T11:07:21;8.63;;;5.32;;
38591;SDS011;24356;48.460;11.450;2022-11-15T11:09:56;9.25;;;5.18;;
38591;SDS011;24356;48.460;11.450;2022-11-15T11:12:33;6.75;;;4.72;;
38591;SDS011;24356;48.460;11.450;2022-11-15T11:15:05;8.38;;;4.53;;
38591;SDS011;24356;48.460;11.450;2022-11-15T11:28:43;8.27;;;4.13;;
38591;SDS011;24356;48.460;11.450;2022-11-15T11:36:33;6.03;;;3.83;;
38591;SDS011;24356;48.460;11.450;2022-11-15T11:47:47;7.07;;;4.35;;
38591;SDS011;24356;48.460;11.450;2022-11-15T11:50:20;8.65;;;4.63;;
38591;SDS011;24356;48.460;11.450;2022-11-15T11:52:56;7.30;;;4.40;;
38591;SDS011;24356;48.460;11.450;2022-11-15T12:00:46;5.57;;;4.07;;
38591;SDS011;24356;48.460;11.450;2022-11-15T12:03:38;7.05;;;4.43;;
38591;SDS011;24356;48.460;11.450;2022-11-15T12:09:00;9.40;;;4.30;;
38591;SDS011;24356;48.460;11.450;2022-11-15T12:11:49;7.80;;;4.25;;
38591;SDS011;24356;48.460;11.450;2022-11-15T12:14:41;5.93;;;3.83;;
38591;SDS011;24356;48.460;11.450;2022-11-15T12:17:13;5.57;;;4.00;;
38591;SDS011;24356;48.460;11.450;2022-11-15T12:19:41;6.53;;;4.18;;
38591;SDS011;24356;48.460;11.450;2022-11-15T12:24:51;6.43;;;4.47;;
38591;SDS011;24356;48.460;11.450;2022-11-15T12:27:20;8.45;;;4.20;;
38591;SDS011;24356;48.460;11.450;2022-11-15T12:30:39;12.65;;;4.40;;
38591;SDS011;24356;48.460;11.450;2022-11-15T12:32:48;9.35;;;4.50;;
38591;SDS011;24356;48.460;11.450;2022-11-15T12:38:09;6.97;;;4.70;;
38591;SDS011;24356;48.460;11.450;2022-11-15T12:40:36;8.70;;;5.07;;
38591;SDS011;24356;48.460;11.450;2022-11-15T12:45:39;8.70;;;4.47;;
38591;SDS011;24356;48.460;11.450;2022-11-15T12:58:53;9.07;;;4.65;;
38591;SDS011;24356;48.460;11.450;2022-11-15T13:06:52;7.53;;;4.40;;
38591;SDS011;24356;48.460;11.450;2022-11-15T13:16:58;7.88;;;4.75;;
38591;SDS011;24356;48.460;11.450;2022-11-15T13:19:24;9.60;;;4.93;;
38591;SDS011;24356;48.460;11.450;2022-11-15T13:21:51;9.73;;;5.20;;
38591;SDS011;24356;48.460;11.450;2022-11-15T13:24:37;7.70;;;5.15;;
38591;SDS011;24356;48.460;11.450;2022-11-15T13:27:10;8.13;;;4.25;;
38591;SDS011;24356;48.460;11.450;2022-11-15T13:29:43;8.00;;;5.25;;
38591;SDS011;24356;48.460;11.450;2022-11-15T13:32:12;9.52;;;4.70;;
38591;SDS011;24356;48.460;11.450;2022-11-15T13:34:43;7.43;;;4.50;;
38591;SDS011;24356;48.460;11.450;2022-11-15T13:39:46;7.30;;;4.10;;
38591;SDS011;24356;48.460;11.450;2022-11-15T13:42:20;6.07;;;4.13;;
38591;SDS011;24356;48.460;11.450;2022-11-15T13:44:59;5.78;;;4.05;;
38591;SDS011;24356;48.460;11.450;2022-11-15T13:47:27;4.90;;;4.05;;
38591;SDS011;24356;48.460;11.450;2022-11-15T13:49:56;8.90;;;4.20;;
38591;SDS011;24356;48.460;11.450;2022-11-15T13:52:22;8.27;;;4.07;;
38591;SDS011;24356;48.460;11.450;2022-11-15T13:55:02;7.38;;;4.30;;
38591;SDS011;24356;48.460;11.450;2022-11-15T13:57:39;7.03;;;4.13;;
38591;SDS011;24356;48.460;11.450;2022-11-15T14:03:12;8.32;;;4.65;;
38591;SDS011;24356;48.460;11.450;2022-11-15T14:05:40;6.03;;;4.63;;
38591;SDS011;24356;48.460;11.450;2022-11-15T14:10:44;7.90;;;5.00;;
38591;SDS011;24356;48.460;11.450;2022-11-15T14:13:10;8.25;;;4.47;;
38591;SDS011;24356;48.460;11.450;2022-11-15T14:15:52;6.95;;;4.85;;
38591;SDS011;24356;48.460;11.450;2022-11-15T14:21:13;8.95;;;5.68;;
38591;SDS011;24356;48.460;11.450;2022-11-15T14:23:39;8.32;;;5.07;;
38591;SDS011;24356;48.460;11.450;2022-11-15T14:26:05;8.50;;;4.90;;
38591;SDS011;24356;48.460;11.450;2022-11-15T14:28:36;9.07;;;5.07;;
38591;SDS011;24356;48.460;11.450;2022-11-15T14:31:09;8.05;;;5.50;;
38591;SDS011;24356;48.460;11.450;2022-11-15T14:36:05;10.40;;;5.80;;
38591;SDS011;24356;48.460;11.450;2022-11-15T14:38:35;10.43;;;5.55;;
38591;SDS011;24356;48.460;11.450;2022-11-15T14:41:01;8.25;;;5.43;;
38591;SDS011;24356;48.460;11.450;2022-11-15T14:43:27;13.02;;;6.38;;
38591;SDS011;24356;48.460;11.450;2022-11-15T14:45:52;10.45;;;6.25;;
38591;SDS011;24356;48.460;11.450;2022-11-15T14:48:19;9.15;;;5.55;;
38591;SDS011;24356;48.460;11.450;2022-11-15T14:50:45;10.38;;;5.25;;
38591;SDS011;24356;48.460;11.450;2022-11-15T14:53:17;10.23;;;5.22;;
38591;SDS011;24356;48.460;11.450;2022-11-15T14:55:44;12.88;;;5.93;;
38591;SDS011;24356;48.460;11.450;2022-11-15T14:58:12;8.77;;;5.45;;
38591;SDS011;24356;48.460;11.450;2022-11-15T15:00:39;11.45;;;6.32;;
38591;SDS011;24356;48.460;11.450;2022-11-15T15:03:06;9.80;;;5.60;;
38591;SDS011;24356;48.460;11.450;2022-11-15T15:08:05;9.27;;;4.28;;
38591;SDS011;24356;48.460;11.450;2022-11-15T15:10:32;14.35;;;6.05;;
38591;SDS011;24356;48.460;11.450;2022-11-15T15:13:03;11.10;;;5.82;;
38591;SDS011;24356;48.460;11.450;2022-11-15T15:15:32;6.93;;;4.43;;
38591;SDS011;24356;48.460;11.450;2022-11-15T15:17:59;10.15;;;4.72;;
38591;SDS011;24356;48.460;11.450;2022-11-15T15:20:26;8.45;;;5.05;;
38591;SDS011;24356;48.460;11.450;2022-11-15T15:22:53;7.50;;;4.72;;
38591;SDS011;24356;48.460;11.450;2022-11-15T15:25:21;7.72;;;5.13;;
38591;SDS011;24356;48.460;11.450;2022-11-15T15:27:58;8.63;;;5.28;;
38591;SDS011;24356;48.460;11.450;2022-11-15T15:30:24;8.73;;;5.05;;
38591;SDS011;24356;48.460;11.450;2022-11-15T15:32:52;9.93;;;5.68;;
38591;SDS011;24356;48.460;11.450;2022-11-15T15:35:19;8.70;;;5.45;;
38591;SDS011;24356;48.460;11.450;2022-11-15T15:37:45;11.52;;;5.97;;
38591;SDS011;24356;48.460;11.450;2022-11-15T15:40:22;11.55;;;6.30;;
38591;SDS011;24356;48.460;11.450;2022-11-15T15:42:49;8.88;;;5.68;;
38591;SDS011;24356;48.460;11.450;2022-11-15T15:45:15;7.75;;;5.50;;
38591;SDS011;24356;48.460;11.450;2022-11-15T15:47:43;8.82;;;5.13;;
38591;SDS011;24356;48.460;11.450;2022-11-15T15:52:56;12.40;;;5.35;;
38591;SDS011;24356;48.460;11.450;2022-11-15T15:55:23;13.75;;;5.28;;
38591;SDS011;24356;48.460;11.450;2022-11-15T15:57:49;13.20;;;6.03;;
38591;SDS011;24356;48.460;11.450;2022-11-15T16:00:15;14.18;;;6.13;;
38591;SDS011;24356;48.460;11.450;2022-11-15T16:02:41;9.13;;;5.90;;
38591;SDS011;24356;48.460;11.450;2022-11-15T16:05:08;12.77;;;5.95;;
38591;SDS011;24356;48.460;11.450;2022-11-15T16:07:34;11.55;;;6.38;;
38591;SDS011;24356;48.460;11.450;2022-11-15T16:10:00;11.60;;;6.95;;
38591;SDS011;24356;48.460;11.450;2022-11-15T16:12:26;10.98;;;5.57;;
38591;SDS011;24356;48.460;11.450;2022-11-15T16:14:53;9.45;;;6.00;;
38591;SDS011;24356;48.460;11.450;2022-11-15T16:17:19;10.32;;;6.15;;
38591;SDS011;24356;48.460;11.450;2022-11-15T16:19:47;10.57;;;6.28;;
38591;SDS011;24356;48.460;11.450;2022-11-15T16:22:13;10.77;;;7.03;;
38591;SDS011;24356;48.460;11.450;2022-11-15T16:24:39;10.93;;;6.78;;
38591;SDS011;24356;48.460;11.450;2022-11-15T16:27:04;14.27;;;6.65;;
38591;SDS011;24356;48.460;11.450;2022-11-15T16:29:30;10.32;;;6.38;;
38591;SDS011;24356;48.460;11.450;2022-11-15T16:31:57;10.23;;;6.57;;
38591;SDS011;24356;48.460;11.450;2022-11-15T16:34:22;12.00;;;6.53;;
38591;SDS011;24356;48.460;11.450;2022-11-15T16:36:49;10.85;;;6.28;;
38591;SDS011;24356;48.460;11.450;2022-11-15T16:39:16;10.15;;;5.97;;
38591;SDS011;24356;48.460;11.450;2022-11-15T16:41:43;9.35;;;6.07;;
38591;SDS011;24356;48.460;11.450;2022-11-15T16:44:11;10.38;;;5.90;;
38591;SDS011;24356;48.460;11.450;2022-11-15T16:46:38;10.80;;;5.93;;
38591;SDS011;24356;48.460;11.450;2022-11-15T16:49:12;11.00;;;6.20;;
38591;SDS011;24356;48.460;11.450;2022-11-15T16:51:39;10.05;;;6.60;;
38591;SDS011;24356;48.460;11.450;2022-11-15T16:54:06;10.38;;;6.40;;
38591;SDS011;24356;48.460;11.450;2022-11-15T16:56:32;11.05;;;6.20;;
38591;SDS011;24356;48.460;11.450;2022-11-15T16:58:58;9.93;;;6.30;;
38591;SDS011;24356;48.460;11.450;2022-11-15T17:01:29;10.35;;;5.80;;